createdAt,value
2022-10-18T00:00:59.905Z,100.00
2022-10-18T00:03:26.998Z,100.00
2022-10-18T00:05:54.159Z,100.00
2022-10-18T00:08:21.690Z,100.00
2022-10-18T00:10:50.056Z,100.00
2022-10-18T00:13:17.952Z,100.00
2022-10-18T00:15:55.085Z,100.00
2022-10-18T00:18:23.266Z,100.00
2022-10-18T00:21:00.238Z,100.00
2022-10-18T00:23:29.235Z,100.00
2022-10-18T00:26:16.410Z,100.00
2022-10-18T00:28:45.347Z,100.00
2022-10-18T00:31:16.757Z,100.00
2022-10-18T00:33:51.534Z,100.00
2022-10-18T00:36:20.111Z,100.00
2022-10-18T00:38:48.379Z,100.00
2022-10-18T00:41:20.160Z,100.00
2022-10-18T00:44:05.221Z,100.00
2022-10-18T00:46:39.860Z,100.00
2022-10-18T00:49:15.420Z,100.00
2022-10-18T00:51:57.841Z,100.00
2022-10-18T00:54:27.738Z,100.00
2022-10-18T00:56:54.868Z,100.00
2022-10-18T00:59:23.399Z,100.00
2022-10-18T01:01:50.621Z,100.00
2022-10-18T01:04:22.151Z,100.00
2022-10-18T01:07:24.683Z,100.00
2022-10-18T01:10:25.568Z,100.00
2022-10-18T01:13:01.208Z,100.00
2022-10-18T01:15:36.708Z,100.00
2022-10-18T01:18:15.444Z,100.00
2022-10-18T01:21:13.177Z,100.00
2022-10-18T01:24:26.359Z,100.00
2022-10-18T01:27:15.196Z,100.00
2022-10-18T01:30:34.271Z,100.00
2022-10-18T01:33:27.640Z,100.00
2022-10-18T01:36:16.835Z,100.00
2022-10-18T01:38:47.475Z,100.00
2022-10-18T01:41:18.745Z,100.00
2022-10-18T01:43:50.832Z,100.00
2022-10-18T01:46:23.559Z,100.00
2022-10-18T01:48:56.269Z,100.00
2022-10-18T01:51:27.136Z,100.00
2022-10-18T01:53:54.847Z,100.00
2022-10-18T01:57:01.465Z,100.00
2022-10-18T02:00:06.675Z,100.00
2022-10-18T02:03:13.036Z,100.00
2022-10-18T02:05:48.676Z,100.00
2022-10-18T02:08:47.327Z,100.00
2022-10-18T02:11:17.411Z,100.00
2022-10-18T02:13:53.031Z,100.00
2022-10-18T02:16:28.240Z,100.00
2022-10-18T02:19:05.292Z,100.00
2022-10-18T02:21:33.428Z,100.00
2022-10-18T02:24:04.119Z,100.00
2022-10-18T02:26:31.395Z,100.00
2022-10-18T02:28:58.665Z,100.00
2022-10-18T02:31:33.032Z,100.00
2022-10-18T02:34:18.219Z,100.00
2022-10-18T02:36:59.976Z,100.00
2022-10-18T02:39:43.230Z,100.00
2022-10-18T02:42:12.009Z,100.00
2022-10-18T02:44:39.804Z,100.00
2022-10-18T02:47:09.357Z,100.00
2022-10-18T02:49:36.391Z,100.00
2022-10-18T02:52:03.670Z,100.00
2022-10-18T02:54:31.745Z,100.00
2022-10-18T02:56:58.767Z,100.00
2022-10-18T02:59:25.873Z,100.00
2022-10-18T03:01:54.041Z,100.00
2022-10-18T03:04:21.168Z,100.00
2022-10-18T03:06:48.316Z,100.00
2022-10-18T03:09:15.336Z,100.00
2022-10-18T03:11:42.414Z,100.00
2022-10-18T03:14:09.448Z,100.00
2022-10-18T03:16:36.569Z,100.00
2022-10-18T03:19:03.708Z,100.00
2022-10-18T03:21:30.813Z,100.00
2022-10-18T03:23:59.694Z,100.00
2022-10-18T03:26:26.760Z,100.00
2022-10-18T03:28:53.855Z,100.00
2022-10-18T03:31:21.971Z,100.00
2022-10-18T03:33:48.974Z,100.00
2022-10-18T03:36:15.998Z,100.00
2022-10-18T03:38:43.380Z,100.00
2022-10-18T03:41:10.511Z,100.00
2022-10-18T03:43:37.683Z,100.00
2022-10-18T03:46:05.056Z,100.00
2022-10-18T03:48:32.371Z,100.00
2022-10-18T03:50:59.558Z,100.00
2022-10-18T03:53:26.607Z,100.00
2022-10-18T03:55:55.459Z,100.00
2022-10-18T03:58:24.234Z,100.00
2022-10-18T04:00:55.400Z,100.00
2022-10-18T04:03:23.390Z,100.00
2022-10-18T04:05:51.125Z,100.00
2022-10-18T04:08:18.873Z,100.00
2022-10-18T04:10:46.514Z,100.00
2022-10-18T04:13:13.619Z,100.00
2022-10-18T04:15:41.819Z,100.00
2022-10-18T04:18:08.844Z,100.00
2022-10-18T04:20:35.936Z,100.00
2022-10-18T04:23:03.057Z,100.00
2022-10-18T04:25:30.194Z,100.00
2022-10-18T04:27:57.227Z,100.00
2022-10-18T04:30:24.176Z,100.00
2022-10-18T04:32:51.257Z,100.00
2022-10-18T04:35:19.706Z,100.00
2022-10-18T04:37:47.726Z,100.00
2022-10-18T04:40:14.832Z,100.00
2022-10-18T04:42:41.863Z,100.00
2022-10-18T04:45:09.672Z,100.00
2022-10-18T04:47:36.897Z,100.00
2022-10-18T04:50:05.515Z,100.00
2022-10-18T04:52:32.623Z,100.00
2022-10-18T04:54:59.655Z,100.00
2022-10-18T04:57:26.776Z,100.00
2022-10-18T04:59:53.723Z,100.00
2022-10-18T05:02:20.683Z,100.00
2022-10-18T05:04:47.715Z,100.00
2022-10-18T05:07:14.868Z,100.00
2022-10-18T05:09:41.832Z,100.00
2022-10-18T05:12:09.108Z,100.00
2022-10-18T05:14:36.157Z,100.00
2022-10-18T05:17:03.243Z,100.00
2022-10-18T05:19:30.255Z,100.00
2022-10-18T05:21:57.274Z,100.00
2022-10-18T05:24:27.021Z,100.00
2022-10-18T05:26:55.027Z,100.00
2022-10-18T05:29:22.332Z,100.00
2022-10-18T05:31:50.504Z,100.00
2022-10-18T05:34:18.459Z,100.00
2022-10-18T05:36:45.663Z,100.00
2022-10-18T05:39:12.784Z,100.00
2022-10-18T05:41:39.814Z,100.00
2022-10-18T05:44:07.290Z,100.00
2022-10-18T05:46:34.402Z,100.00
2022-10-18T05:49:01.505Z,100.00
2022-10-18T05:51:28.477Z,100.00
2022-10-18T05:53:55.487Z,100.00
2022-10-18T05:56:22.630Z,100.00
2022-10-18T05:58:51.657Z,100.00
2022-10-18T06:01:20.091Z,100.00
2022-10-18T06:03:47.575Z,100.00
2022-10-18T06:06:16.976Z,100.00
2022-10-18T06:08:44.672Z,100.00
2022-10-18T06:11:16.460Z,100.00
2022-10-18T06:13:46.752Z,100.00
2022-10-18T06:16:18.547Z,100.00
2022-10-18T06:18:52.231Z,100.00
2022-10-18T06:21:20.892Z,100.00
2022-10-18T06:23:55.705Z,100.00
2022-10-18T06:26:23.130Z,100.00
2022-10-18T06:28:50.508Z,100.00
2022-10-18T06:31:18.424Z,100.00
2022-10-18T06:33:48.231Z,100.00
2022-10-18T06:36:22.270Z,100.00
2022-10-18T06:38:50.572Z,100.00
2022-10-18T06:41:19.565Z,100.00
2022-10-18T06:43:51.892Z,100.00
2022-10-18T06:46:19.915Z,100.00
2022-10-18T06:48:48.047Z,100.00
2022-10-18T06:51:15.394Z,100.00
2022-10-18T06:53:44.575Z,100.00
2022-10-18T06:56:26.093Z,100.00
2022-10-18T06:58:54.200Z,100.00
2022-10-18T07:01:21.990Z,100.00
2022-10-18T07:03:53.395Z,100.00
2022-10-18T07:06:22.348Z,100.00
2022-10-18T07:08:52.780Z,100.00
2022-10-18T07:11:25.240Z,100.00
2022-10-18T07:13:54.755Z,100.00
2022-10-18T07:16:22.121Z,100.00
2022-10-18T07:18:51.429Z,100.00
2022-10-18T07:21:23.103Z,100.00
2022-10-18T07:23:51.667Z,100.00
2022-10-18T07:26:25.209Z,100.00
2022-10-18T07:29:01.541Z,100.00
2022-10-18T07:31:30.104Z,100.00
2022-10-18T07:33:57.426Z,100.00
2022-10-18T07:36:25.602Z,100.00
2022-10-18T07:38:53.679Z,100.00
2022-10-18T07:41:21.680Z,100.00
2022-10-18T07:43:51.706Z,100.00
2022-10-18T07:46:21.558Z,100.00
2022-10-18T07:48:50.677Z,100.00
2022-10-18T07:51:20.627Z,100.00
2022-10-18T07:53:48.461Z,100.00
2022-10-18T07:56:21.162Z,100.00
2022-10-18T07:58:51.864Z,100.00
2022-10-18T08:01:21.406Z,100.00
2022-10-18T08:03:49.364Z,100.00
2022-10-18T08:06:19.127Z,100.00
2022-10-18T08:08:47.113Z,100.00
2022-10-18T08:11:21.381Z,100.00
2022-10-18T08:13:48.919Z,100.00
2022-10-18T08:16:20.473Z,100.00
2022-10-18T08:18:48.890Z,100.00
2022-10-18T08:21:17.751Z,100.00
2022-10-18T08:23:45.206Z,100.00
2022-10-18T08:26:20.062Z,100.00
2022-10-18T08:28:53.892Z,100.00
2022-10-18T08:31:27.592Z,100.00
2022-10-18T08:33:58.036Z,100.00
2022-10-18T08:36:26.064Z,100.00
2022-10-18T08:38:53.097Z,100.00
2022-10-18T08:42:30.174Z,100.00
2022-10-18T08:44:58.023Z,100.00
2022-10-18T08:47:41.948Z,98.34
2022-10-18T08:50:23.789Z,97.68
2022-10-18T08:52:53.633Z,95.87
2022-10-18T08:55:39.615Z,94.52
2022-10-18T08:58:33.613Z,94.64
2022-10-18T09:01:56.670Z,95.53
2022-10-18T09:05:04.357Z,95.45
2022-10-18T09:07:59.316Z,95.88
2022-10-18T09:14:03.434Z,95.80
2022-10-18T09:16:51.476Z,94.65
2022-10-18T09:19:45.114Z,95.32
2022-10-18T09:22:20.289Z,94.61
2022-10-18T09:25:14.319Z,94.75
2022-10-18T09:28:07.687Z,93.55
2022-10-18T09:31:17.446Z,93.57
2022-10-18T09:33:58.876Z,92.85
2022-10-18T09:36:35.556Z,92.39
2022-10-18T09:39:15.456Z,91.72
2022-10-18T09:41:59.146Z,91.44
2022-10-18T09:44:38.172Z,90.69
2022-10-18T09:47:33.735Z,85.99
2022-10-18T09:50:24.267Z,85.44
2022-10-18T09:53:12.869Z,85.91
2022-10-18T09:56:18.867Z,88.22
2022-10-18T09:58:49.712Z,89.23
2022-10-18T10:01:23.991Z,87.65
2022-10-18T10:03:52.428Z,86.02
2022-10-18T10:06:27.349Z,84.23
2022-10-18T10:09:18.272Z,84.49
2022-10-18T10:11:49.151Z,82.30
2022-10-18T10:14:26.210Z,79.76
2022-10-18T10:16:58.307Z,75.83
2022-10-18T10:19:32.149Z,78.10
2022-10-18T10:22:10.462Z,79.26
2022-10-18T10:24:51.188Z,74.32
2022-10-18T10:27:35.934Z,76.51
2022-10-18T10:30:22.539Z,74.33
2022-10-18T10:32:52.004Z,70.95
2022-10-18T10:38:29.535Z,68.63
2022-10-18T10:40:58.702Z,68.69
2022-10-18T10:43:40.027Z,66.47
2022-10-18T10:46:26.341Z,67.91
2022-10-18T10:49:21.679Z,64.77
2022-10-18T10:52:02.527Z,68.59
2022-10-18T10:54:39.841Z,69.34
2022-10-18T10:57:22.058Z,70.87
2022-10-18T10:59:53.758Z,70.79
2022-10-18T11:02:36.380Z,71.81
2022-10-18T11:05:29.462Z,71.14
2022-10-18T11:08:04.439Z,71.05
2022-10-18T11:10:50.074Z,69.02
2022-10-18T11:13:53.298Z,65.65
2022-10-18T11:16:56.220Z,68.79
2022-10-18T11:19:40.196Z,68.19
2022-10-18T11:22:18.479Z,68.33
2022-10-18T11:24:45.623Z,67.91
2022-10-18T11:27:29.314Z,68.74
2022-10-18T11:30:44.223Z,69.26
2022-10-18T11:34:03.707Z,68.79
2022-10-18T11:36:57.992Z,67.85
2022-10-18T11:39:50.071Z,65.50
2022-10-18T11:42:41.851Z,67.14
2022-10-18T11:46:00.277Z,66.33
2022-10-18T11:48:55.032Z,65.18
2022-10-18T11:52:03.131Z,63.16
2022-10-18T11:54:51.991Z,63.44
2022-10-18T11:57:55.239Z,62.71
2022-10-18T12:00:53.381Z,63.20
2022-10-18T12:03:35.352Z,61.47
2022-10-18T12:06:13.656Z,60.84
2022-10-18T12:08:52.903Z,62.35
2022-10-18T12:11:30.700Z,61.75
2022-10-18T12:14:07.933Z,59.91
2022-10-18T12:17:20.238Z,57.94
2022-10-18T12:19:33.056Z,57.00
2022-10-18T12:22:20.319Z,58.26
2022-10-18T12:24:47.419Z,60.40
2022-10-18T12:27:18.678Z,60.89
2022-10-18T12:30:03.738Z,60.44
2022-10-18T12:32:36.705Z,59.99
2022-10-18T12:35:13.476Z,60.06
2022-10-18T12:38:15.927Z,59.89
2022-10-18T12:40:48.404Z,59.98
2022-10-18T12:43:26.592Z,60.39
2022-10-18T12:46:00.410Z,60.06
2022-10-18T12:48:45.587Z,59.39
2022-10-18T12:51:21.831Z,58.21
2022-10-18T12:54:00.741Z,57.97
2022-10-18T12:56:27.710Z,56.59
2022-10-18T12:59:16.340Z,56.02
2022-10-18T13:01:53.457Z,57.44
2022-10-18T13:04:32.544Z,56.90
2022-10-18T13:07:08.347Z,55.73
2022-10-18T13:09:39.967Z,57.06
2022-10-18T13:12:09.651Z,55.41
2022-10-18T13:15:05.996Z,53.68
2022-10-18T13:17:54.885Z,53.84
2022-10-18T13:20:54.450Z,54.85
2022-10-18T13:23:49.776Z,55.46
2022-10-18T13:26:40.296Z,55.18
2022-10-18T13:29:47.424Z,55.38
2022-10-18T13:32:35.499Z,54.65
2022-10-18T13:35:03.559Z,55.02
2022-10-18T13:37:31.057Z,54.66
2022-10-18T13:40:25.444Z,55.43
2022-10-18T13:42:52.509Z,54.58
2022-10-18T13:45:52.772Z,52.80
2022-10-18T13:48:31.859Z,53.57
2022-10-18T13:51:27.036Z,54.87
2022-10-18T13:54:23.229Z,56.13
2022-10-18T13:57:34.152Z,57.18
2022-10-18T14:00:36.508Z,54.32
2022-10-18T14:03:55.480Z,54.34
2022-10-18T14:06:25.135Z,51.90
2022-10-18T14:09:32.858Z,52.64
2022-10-18T14:12:44.825Z,51.34
2022-10-18T14:15:51.422Z,51.90
2022-10-18T14:18:36.361Z,53.54
2022-10-18T14:21:17.838Z,54.09
2022-10-18T14:23:51.312Z,53.18
2022-10-18T14:26:21.501Z,53.78
2022-10-18T14:29:07.717Z,54.15
2022-10-18T14:31:35.596Z,54.40
2022-10-18T14:34:04.290Z,53.82
2022-10-18T14:36:46.941Z,53.82
2022-10-18T14:39:27.053Z,53.05
2022-10-18T14:41:59.496Z,52.86
2022-10-18T14:44:34.879Z,52.60
2022-10-18T14:47:21.111Z,53.25
2022-10-18T14:49:50.389Z,54.62
2022-10-18T14:52:29.411Z,53.82
2022-10-18T14:55:00.800Z,54.92
2022-10-18T14:57:37.560Z,54.42
2022-10-18T15:00:17.127Z,54.01
2022-10-18T15:02:45.249Z,54.84
2022-10-18T15:05:25.601Z,53.45
2022-10-18T15:07:55.197Z,54.44
2022-10-18T15:10:32.645Z,54.68
2022-10-18T15:13:12.820Z,55.61
2022-10-18T15:15:43.633Z,55.05
2022-10-18T15:18:24.152Z,53.86
2022-10-18T15:21:23.847Z,54.69
2022-10-18T15:23:52.971Z,55.54
2022-10-18T15:26:30.322Z,56.02
2022-10-18T15:29:02.849Z,56.53
2022-10-18T15:31:44.555Z,57.08
2022-10-18T15:34:19.810Z,57.66
2022-10-18T15:36:49.853Z,58.30
2022-10-18T15:39:24.419Z,58.23
2022-10-18T15:41:57.290Z,58.05
2022-10-18T15:44:48.142Z,57.63
2022-10-18T15:47:23.891Z,58.63
2022-10-18T15:49:55.550Z,59.21
2022-10-18T15:52:38.226Z,58.75
2022-10-18T15:55:31.224Z,59.07
2022-10-18T15:58:25.344Z,59.28
2022-10-18T16:00:59.372Z,60.68
2022-10-18T16:03:28.796Z,60.80
2022-10-18T16:06:06.116Z,61.27
2022-10-18T16:08:41.249Z,61.63
2022-10-18T16:11:16.662Z,62.56
2022-10-18T16:13:45.509Z,62.58
2022-10-18T16:16:26.068Z,63.56
2022-10-18T16:18:54.612Z,63.90
2022-10-18T16:21:31.922Z,64.41
2022-10-18T16:24:00.187Z,65.00
2022-10-18T16:26:29.828Z,65.33
2022-10-18T16:28:59.816Z,66.03
2022-10-18T16:31:33.545Z,66.41
2022-10-18T16:34:03.094Z,67.00
2022-10-18T16:36:33.700Z,67.91
2022-10-18T16:39:12.153Z,68.64
2022-10-18T16:41:39.215Z,69.35
2022-10-18T16:44:06.199Z,70.10
2022-10-18T16:46:35.232Z,70.63
2022-10-18T16:51:47.303Z,71.74
2022-10-18T16:54:14.426Z,72.29
2022-10-18T16:56:41.479Z,72.59
2022-10-18T16:59:21.886Z,73.20
2022-10-18T17:01:48.962Z,73.71
2022-10-18T17:04:16.556Z,74.30
2022-10-18T17:06:43.970Z,75.23
2022-10-18T17:09:15.045Z,75.30
2022-10-18T17:11:45.493Z,75.64
2022-10-18T17:14:12.556Z,76.12
2022-10-18T17:16:39.702Z,76.21
2022-10-18T17:19:11.719Z,76.60
2022-10-18T17:21:38.719Z,76.65
2022-10-18T17:24:06.246Z,77.04
2022-10-18T17:26:34.739Z,77.82
2022-10-18T17:29:07.171Z,78.28
2022-10-18T17:31:35.874Z,78.23
2022-10-18T17:34:04.643Z,78.50
2022-10-18T17:36:33.635Z,78.81
2022-10-18T17:39:01.584Z,79.16
2022-10-18T17:41:30.630Z,79.78
2022-10-18T17:43:58.260Z,80.03
2022-10-18T17:46:25.417Z,80.28
2022-10-18T17:48:53.679Z,80.37
2022-10-18T17:51:20.988Z,80.66
2022-10-18T17:53:48.497Z,80.65
2022-10-18T17:56:16.948Z,80.92
2022-10-18T17:58:43.899Z,80.92
2022-10-18T18:01:21.283Z,81.10
2022-10-18T18:03:48.654Z,81.21
2022-10-18T18:06:39.014Z,81.50
2022-10-18T18:09:13.548Z,81.69
2022-10-18T18:11:43.833Z,81.64
2022-10-18T18:14:12.041Z,81.72
2022-10-18T18:16:43.016Z,82.07
2022-10-18T18:19:11.359Z,82.49
2022-10-18T18:21:40.294Z,82.59
2022-10-18T18:24:10.053Z,82.55
2022-10-18T18:26:38.936Z,82.76
2022-10-18T18:29:06.473Z,82.99
2022-10-18T18:31:38.873Z,83.09
2022-10-18T18:34:10.319Z,83.14
2022-10-18T18:36:37.723Z,83.20
2022-10-18T18:39:05.691Z,83.61
2022-10-18T18:41:33.280Z,83.83
2022-10-18T18:44:04.352Z,83.98
2022-10-18T18:46:38.313Z,84.23
2022-10-18T18:49:08.112Z,84.40
2022-10-18T18:51:40.129Z,84.58
2022-10-18T18:54:10.364Z,84.62
2022-10-18T18:56:38.060Z,84.77
2022-10-18T18:59:05.874Z,84.81
2022-10-18T19:01:37.041Z,85.18
2022-10-18T19:04:07.558Z,85.46
2022-10-18T19:06:38.715Z,85.61
2022-10-18T19:09:18.960Z,85.76
2022-10-18T19:11:48.594Z,86.17
2022-10-18T19:14:15.783Z,86.06
2022-10-18T19:16:55.088Z,86.30
2022-10-18T19:19:25.230Z,86.49
2022-10-18T19:22:00.215Z,86.64
2022-10-18T19:24:32.452Z,86.49
2022-10-18T19:27:12.519Z,86.85
2022-10-18T19:29:40.961Z,86.72
2022-10-18T19:32:15.093Z,87.00
2022-10-18T19:34:46.156Z,86.88
2022-10-18T19:37:16.115Z,86.99
2022-10-18T19:39:43.301Z,87.07
2022-10-18T19:42:16.002Z,86.87
2022-10-18T19:44:47.943Z,87.25
2022-10-18T19:47:14.972Z,87.39
2022-10-18T19:49:43.041Z,87.51
2022-10-18T19:52:12.251Z,87.68
2022-10-18T19:54:39.618Z,87.94
2022-10-18T19:57:07.819Z,87.83
2022-10-18T19:59:36.030Z,88.04
2022-10-18T20:02:06.955Z,88.02
2022-10-18T20:04:35.068Z,87.84
2022-10-18T20:07:02.768Z,87.88
2022-10-18T20:09:30.053Z,87.78
2022-10-18T20:11:57.081Z,87.88
2022-10-18T20:14:24.117Z,88.07
2022-10-18T20:16:51.175Z,88.08
2022-10-18T20:19:18.242Z,88.16
2022-10-18T20:21:45.245Z,88.26
2022-10-18T20:24:12.364Z,88.25
2022-10-18T20:26:39.770Z,88.46
2022-10-18T20:29:07.848Z,88.59
2022-10-18T20:31:38.392Z,88.79
2022-10-18T20:34:11.078Z,88.69
2022-10-18T20:36:38.378Z,89.17
2022-10-18T20:39:07.733Z,89.29
2022-10-18T20:41:41.135Z,89.21
2022-10-18T20:44:14.537Z,89.24
2022-10-18T20:46:42.370Z,89.27
2022-10-18T20:49:14.743Z,89.34
2022-10-18T20:51:42.199Z,89.27
2022-10-18T20:54:10.454Z,89.40
2022-10-18T20:56:39.171Z,89.16
2022-10-18T20:59:14.741Z,89.47
2022-10-18T21:01:43.062Z,89.71
2022-10-18T21:04:11.294Z,90.21
2022-10-18T21:06:43.159Z,92.63
2022-10-18T21:09:16.345Z,94.04
2022-10-18T21:11:49.811Z,94.74
2022-10-18T21:14:21.232Z,94.23
2022-10-18T21:16:50.880Z,94.12
2022-10-18T21:19:25.329Z,94.11
2022-10-18T21:21:55.343Z,94.58
2022-10-18T21:24:25.989Z,95.29
2022-10-18T21:26:53.663Z,95.92
2022-10-18T21:29:24.735Z,96.17
2022-10-18T21:31:55.671Z,95.67
2022-10-18T21:34:22.803Z,95.19
2022-10-18T21:36:49.813Z,94.69
2022-10-18T21:39:21.343Z,93.93
2022-10-18T21:41:49.462Z,93.79
2022-10-18T21:44:18.210Z,93.28
2022-10-18T21:46:46.736Z,93.26
2022-10-18T21:49:15.584Z,93.19
2022-10-18T21:51:44.107Z,93.61
2022-10-18T21:54:14.506Z,93.57
2022-10-18T21:56:41.846Z,93.15
2022-10-18T21:59:14.035Z,93.18
2022-10-18T22:01:43.538Z,93.88
2022-10-18T22:04:23.845Z,94.69
2022-10-18T22:06:52.164Z,95.18
2022-10-18T22:09:21.058Z,95.17
2022-10-18T22:11:52.657Z,95.40
2022-10-18T22:14:20.853Z,94.53
2022-10-18T22:16:47.920Z,94.16
2022-10-18T22:19:15.100Z,93.83
2022-10-18T22:21:42.250Z,93.85
2022-10-18T22:24:10.423Z,93.58
2022-10-18T22:26:41.599Z,93.53
2022-10-18T22:29:15.166Z,93.54
2022-10-18T22:31:47.374Z,93.49
2022-10-18T22:34:22.285Z,93.50
2022-10-18T22:36:50.176Z,93.38
2022-10-18T22:39:17.954Z,93.44
2022-10-18T22:41:46.588Z,93.44
2022-10-18T22:44:14.759Z,93.55
2022-10-18T22:46:43.069Z,93.45
2022-10-18T22:49:11.638Z,93.39
2022-10-18T22:51:40.630Z,93.49
2022-10-18T22:54:07.941Z,93.44
2022-10-18T22:56:35.228Z,93.41
2022-10-18T22:59:02.224Z,93.53
2022-10-18T23:01:30.311Z,93.44
2022-10-18T23:04:00.002Z,93.52
2022-10-18T23:06:31.916Z,93.18
2022-10-18T23:09:02.179Z,93.54
2022-10-18T23:11:29.556Z,93.39
2022-10-18T23:13:57.114Z,93.45
2022-10-18T23:16:26.264Z,93.33
2022-10-18T23:18:56.815Z,93.40
2022-10-18T23:21:28.002Z,93.27
2022-10-18T23:23:56.748Z,93.31
2022-10-18T23:26:28.106Z,93.27
2022-10-18T23:28:56.271Z,93.35
2022-10-18T23:31:31.083Z,93.24
2022-10-18T23:34:04.943Z,93.46
2022-10-18T23:36:33.602Z,93.35
2022-10-18T23:39:00.984Z,94.80
2022-10-18T23:41:28.289Z,95.57
2022-10-18T23:43:55.424Z,95.94
2022-10-18T23:46:22.550Z,95.72
2022-10-18T23:48:50.297Z,95.06
2022-10-18T23:51:18.431Z,94.64
2022-10-18T23:53:45.674Z,94.49
2022-10-18T23:56:16.129Z,94.53
2022-10-18T23:58:45.135Z,94.52
